sensor_id;sensor_type;location;lat;lon;timestamp;temperature;humidity
38209;DHT22;24016;52.102;11.584;2023-05-16T00:00:23;10.70;99.90
38209;DHT22;24016;52.102;11.584;2023-05-16T00:02:49;10.70;99.90
38209;DHT22;24016;52.102;11.584;2023-05-16T00:05:15;10.60;99.90
38209;DHT22;24016;52.102;11.584;2023-05-16T00:07:43;10.50;99.90
38209;DHT22;24016;52.102;11.584;2023-05-16T00:10:10;10.50;99.90
38209;DHT22;24016;52.102;11.584;2023-05-16T00:12:36;10.40;99.90
38209;DHT22;24016;52.102;11.584;2023-05-16T00:15:02;10.30;99.90
38209;DHT22;24016;52.102;11.584;2023-05-16T00:17:29;10.20;99.90
38209;DHT22;24016;52.102;11.584;2023-05-16T00:19:55;10.10;99.90
38209;DHT22;24016;52.102;11.584;2023-05-16T00:22:23;10.10;99.90
38209;DHT22;24016;52.102;11.584;2023-05-16T00:24:49;10.00;99.90
38209;DHT22;24016;52.102;11.584;2023-05-16T00:27:15;9.90;99.90
38209;DHT22;24016;52.102;11.584;2023-05-16T00:29:41;9.80;99.90
38209;DHT22;24016;52.102;11.584;2023-05-16T00:32:06;9.70;99.90
38209;DHT22;24016;52.102;11.584;2023-05-16T00:34:33;9.70;99.90
38209;DHT22;24016;52.102;11.584;2023-05-16T00:36:59;9.50;99.90
38209;DHT22;24016;52.102;11.584;2023-05-16T00:39:24;9.40;99.90
38209;DHT22;24016;52.102;11.584;2023-05-16T00:41:50;9.40;99.90
38209;DHT22;24016;52.102;11.584;2023-05-16T00:44:16;9.40;99.90
38209;DHT22;24016;52.102;11.584;2023-05-16T00:46:41;9.30;99.90
38209;DHT22;24016;52.102;11.584;2023-05-16T00:49:08;9.30;99.90
38209;DHT22;24016;52.102;11.584;2023-05-16T00:51:34;9.30;99.90
38209;DHT22;24016;52.102;11.584;2023-05-16T00:54:01;9.20;99.90
38209;DHT22;24016;52.102;11.584;2023-05-16T00:56:27;9.20;99.90
38209;DHT22;24016;52.102;11.584;2023-05-16T00:58:53;9.10;99.90
38209;DHT22;24016;52.102;11.584;2023-05-16T01:01:19;9.00;99.90
38209;DHT22;24016;52.102;11.584;2023-05-16T01:03:47;9.00;99.90
38209;DHT22;24016;52.102;11.584;2023-05-16T01:06:13;8.90;99.90
38209;DHT22;24016;52.102;11.584;2023-05-16T01:08:38;8.90;99.90
38209;DHT22;24016;52.102;11.584;2023-05-16T01:14:02;8.80;99.90
38209;DHT22;24016;52.102;11.584;2023-05-16T01:16:49;8.70;99.90
38209;DHT22;24016;52.102;11.584;2023-05-16T01:19:43;8.60;99.90
38209;DHT22;24016;52.102;11.584;2023-05-16T01:25:33;8.60;99.90
38209;DHT22;24016;52.102;11.584;2023-05-16T01:28:02;8.60;99.90
38209;DHT22;24016;52.102;11.584;2023-05-16T01:33:15;8.50;99.90
38209;DHT22;24016;52.102;11.584;2023-05-16T01:36:08;8.50;99.90
38209;DHT22;24016;52.102;11.584;2023-05-16T01:38:55;8.40;99.90
38209;DHT22;24016;52.102;11.584;2023-05-16T01:41:38;8.50;99.90
38209;DHT22;24016;52.102;11.584;2023-05-16T01:44:06;8.50;99.90
38209;DHT22;24016;52.102;11.584;2023-05-16T01:46:37;8.50;99.90
38209;DHT22;24016;52.102;11.584;2023-05-16T01:49:24;8.50;99.90
38209;DHT22;24016;52.102;11.584;2023-05-16T01:51:55;8.50;99.90
38209;DHT22;24016;52.102;11.584;2023-05-16T01:54:24;8.50;99.90
38209;DHT22;24016;52.102;11.584;2023-05-16T01:56:52;8.60;99.90
38209;DHT22;24016;52.102;11.584;2023-05-16T01:59:19;8.60;99.90
38209;DHT22;24016;52.102;11.584;2023-05-16T02:01:47;8.60;99.90
38209;DHT22;24016;52.102;11.584;2023-05-16T02:04:12;8.70;99.90
38209;DHT22;24016;52.102;11.584;2023-05-16T02:06:40;8.60;99.90
38209;DHT22;24016;52.102;11.584;2023-05-16T02:09:06;8.70;99.90
38209;DHT22;24016;52.102;11.584;2023-05-16T02:11:31;8.70;99.90
38209;DHT22;24016;52.102;11.584;2023-05-16T02:13:56;8.70;99.90
38209;DHT22;24016;52.102;11.584;2023-05-16T02:16:22;8.70;99.90
38209;DHT22;24016;52.102;11.584;2023-05-16T02:18:48;8.70;99.90
38209;DHT22;24016;52.102;11.584;2023-05-16T02:21:13;8.70;99.90
38209;DHT22;24016;52.102;11.584;2023-05-16T02:23:39;8.70;99.90
38209;DHT22;24016;52.102;11.584;2023-05-16T02:26:04;8.70;99.90
38209;DHT22;24016;52.102;11.584;2023-05-16T02:28:30;8.70;99.90
38209;DHT22;24016;52.102;11.584;2023-05-16T02:30:57;8.70;99.90
38209;DHT22;24016;52.102;11.584;2023-05-16T02:33:27;8.80;99.90
38209;DHT22;24016;52.102;11.584;2023-05-16T02:35:53;8.80;99.90
38209;DHT22;24016;52.102;11.584;2023-05-16T02:38:19;8.80;99.90
38209;DHT22;24016;52.102;11.584;2023-05-16T02:40:48;8.90;99.90
38209;DHT22;24016;52.102;11.584;2023-05-16T02:43:15;8.80;99.90
38209;DHT22;24016;52.102;11.584;2023-05-16T02:45:40;8.80;99.90
38209;DHT22;24016;52.102;11.584;2023-05-16T02:48:06;8.80;99.90
38209;DHT22;24016;52.102;11.584;2023-05-16T02:50:33;8.70;99.90
38209;DHT22;24016;52.102;11.584;2023-05-16T02:52:58;8.80;99.90
38209;DHT22;24016;52.102;11.584;2023-05-16T02:55:27;8.80;99.90
38209;DHT22;24016;52.102;11.584;2023-05-16T02:57:52;8.80;99.90
38209;DHT22;24016;52.102;11.584;2023-05-16T03:00:18;8.80;99.90
38209;DHT22;24016;52.102;11.584;2023-05-16T03:02:44;8.80;99.90
38209;DHT22;24016;52.102;11.584;2023-05-16T03:05:10;8.90;99.90
38209;DHT22;24016;52.102;11.584;2023-05-16T03:07:36;8.90;99.90
38209;DHT22;24016;52.102;11.584;2023-05-16T03:10:02;8.90;99.90
38209;DHT22;24016;52.102;11.584;2023-05-16T03:12:27;8.90;99.90
38209;DHT22;24016;52.102;11.584;2023-05-16T03:14:53;8.90;99.90
38209;DHT22;24016;52.102;11.584;2023-05-16T03:17:18;9.00;99.90
38209;DHT22;24016;52.102;11.584;2023-05-16T03:19:44;9.00;99.90
38209;DHT22;24016;52.102;11.584;2023-05-16T03:22:10;9.00;99.90
38209;DHT22;24016;52.102;11.584;2023-05-16T03:24:35;9.10;99.90
38209;DHT22;24016;52.102;11.584;2023-05-16T03:27:01;9.10;99.90
38209;DHT22;24016;52.102;11.584;2023-05-16T03:29:29;9.10;99.90
38209;DHT22;24016;52.102;11.584;2023-05-16T03:31:56;9.10;99.90
38209;DHT22;24016;52.102;11.584;2023-05-16T03:34:21;9.20;99.90
38209;DHT22;24016;52.102;11.584;2023-05-16T03:36:48;9.20;99.90
38209;DHT22;24016;52.102;11.584;2023-05-16T03:39:15;9.20;99.90
38209;DHT22;24016;52.102;11.584;2023-05-16T03:41:41;9.20;99.90
38209;DHT22;24016;52.102;11.584;2023-05-16T03:44:06;9.20;99.90
38209;DHT22;24016;52.102;11.584;2023-05-16T03:46:32;9.20;99.90
38209;DHT22;24016;52.102;11.584;2023-05-16T03:48:58;9.20;99.90
38209;DHT22;24016;52.102;11.584;2023-05-16T03:51:23;9.30;99.90
38209;DHT22;24016;52.102;11.584;2023-05-16T03:53:49;9.30;99.90
38209;DHT22;24016;52.102;11.584;2023-05-16T03:56:14;9.30;99.90
38209;DHT22;24016;52.102;11.584;2023-05-16T03:58:40;9.30;99.90
38209;DHT22;24016;52.102;11.584;2023-05-16T04:01:05;9.30;99.90
38209;DHT22;24016;52.102;11.584;2023-05-16T04:03:31;9.30;99.90
38209;DHT22;24016;52.102;11.584;2023-05-16T04:05:58;9.40;99.90
38209;DHT22;24016;52.102;11.584;2023-05-16T04:08:24;9.40;99.90
38209;DHT22;24016;52.102;11.584;2023-05-16T04:10:50;9.40;99.90
38209;DHT22;24016;52.102;11.584;2023-05-16T04:13:16;9.40;99.90
38209;DHT22;24016;52.102;11.584;2023-05-16T04:15:42;9.40;99.90
38209;DHT22;24016;52.102;11.584;2023-05-16T04:18:08;9.40;99.90
38209;DHT22;24016;52.102;11.584;2023-05-16T04:20:34;9.50;99.90
38209;DHT22;24016;52.102;11.584;2023-05-16T04:23:00;9.50;99.90
38209;DHT22;24016;52.102;11.584;2023-05-16T04:25:26;9.50;99.90
38209;DHT22;24016;52.102;11.584;2023-05-16T04:27:51;9.50;99.90
38209;DHT22;24016;52.102;11.584;2023-05-16T04:30:18;9.50;99.90
38209;DHT22;24016;52.102;11.584;2023-05-16T04:32:43;9.60;99.90
38209;DHT22;24016;52.102;11.584;2023-05-16T04:35:09;9.50;99.90
38209;DHT22;24016;52.102;11.584;2023-05-16T04:37:34;9.50;99.90
38209;DHT22;24016;52.102;11.584;2023-05-16T04:40:00;9.50;99.90
38209;DHT22;24016;52.102;11.584;2023-05-16T04:42:26;9.50;99.90
38209;DHT22;24016;52.102;11.584;2023-05-16T04:44:51;9.60;99.90
38209;DHT22;24016;52.102;11.584;2023-05-16T04:47:17;9.60;99.90
38209;DHT22;24016;52.102;11.584;2023-05-16T04:49:43;9.60;99.90
38209;DHT22;24016;52.102;11.584;2023-05-16T04:52:08;9.60;99.90
38209;DHT22;24016;52.102;11.584;2023-05-16T04:54:37;9.60;99.90
38209;DHT22;24016;52.102;11.584;2023-05-16T04:57:02;9.70;99.90
38209;DHT22;24016;52.102;11.584;2023-05-16T04:59:28;9.70;99.90
38209;DHT22;24016;52.102;11.584;2023-05-16T05:01:53;9.70;99.90
38209;DHT22;24016;52.102;11.584;2023-05-16T05:04:19;9.70;99.90
38209;DHT22;24016;52.102;11.584;2023-05-16T05:06:44;9.70;99.90
38209;DHT22;24016;52.102;11.584;2023-05-16T05:09:10;9.70;99.90
38209;DHT22;24016;52.102;11.584;2023-05-16T05:11:35;9.70;99.90
38209;DHT22;24016;52.102;11.584;2023-05-16T05:14:01;9.80;99.90
38209;DHT22;24016;52.102;11.584;2023-05-16T05:16:28;9.70;99.90
38209;DHT22;24016;52.102;11.584;2023-05-16T05:18:53;9.80;99.90
38209;DHT22;24016;52.102;11.584;2023-05-16T05:21:19;9.80;99.90
38209;DHT22;24016;52.102;11.584;2023-05-16T05:23:44;9.80;99.90
38209;DHT22;24016;52.102;11.584;2023-05-16T05:26:10;9.80;99.90
38209;DHT22;24016;52.102;11.584;2023-05-16T05:28:36;9.90;99.90
38209;DHT22;24016;52.102;11.584;2023-05-16T05:31:03;9.90;99.90
38209;DHT22;24016;52.102;11.584;2023-05-16T05:33:29;10.00;99.90
38209;DHT22;24016;52.102;11.584;2023-05-16T05:35:55;10.00;99.90
38209;DHT22;24016;52.102;11.584;2023-05-16T05:38:21;10.10;99.90
38209;DHT22;24016;52.102;11.584;2023-05-16T05:40:46;10.20;99.90
38209;DHT22;24016;52.102;11.584;2023-05-16T05:43:13;10.20;99.90
38209;DHT22;24016;52.102;11.584;2023-05-16T05:45:39;10.30;99.90
38209;DHT22;24016;52.102;11.584;2023-05-16T05:48:05;10.30;99.90
38209;DHT22;24016;52.102;11.584;2023-05-16T05:50:30;10.30;99.90
38209;DHT22;24016;52.102;11.584;2023-05-16T05:52:56;10.30;99.90
38209;DHT22;24016;52.102;11.584;2023-05-16T05:55:21;10.30;99.90
38209;DHT22;24016;52.102;11.584;2023-05-16T05:57:47;10.30;99.90
38209;DHT22;24016;52.102;11.584;2023-05-16T06:00:13;10.40;99.90
38209;DHT22;24016;52.102;11.584;2023-05-16T06:02:39;10.50;99.90
38209;DHT22;24016;52.102;11.584;2023-05-16T06:05:04;10.40;99.90
38209;DHT22;24016;52.102;11.584;2023-05-16T06:07:30;10.50;99.90
38209;DHT22;24016;52.102;11.584;2023-05-16T06:09:55;10.50;99.90
38209;DHT22;24016;52.102;11.584;2023-05-16T06:12:21;10.50;99.90
38209;DHT22;24016;52.102;11.584;2023-05-16T06:14:46;10.50;99.90
38209;DHT22;24016;52.102;11.584;2023-05-16T06:17:12;10.50;99.90
38209;DHT22;24016;52.102;11.584;2023-05-16T06:19:37;10.40;99.90
38209;DHT22;24016;52.102;11.584;2023-05-16T06:22:03;10.40;99.90
38209;DHT22;24016;52.102;11.584;2023-05-16T06:24:28;10.40;99.90
38209;DHT22;24016;52.102;11.584;2023-05-16T06:26:55;10.30;99.90
38209;DHT22;24016;52.102;11.584;2023-05-16T06:29:20;10.30;99.90
38209;DHT22;24016;52.102;11.584;2023-05-16T06:31:45;10.20;99.90
38209;DHT22;24016;52.102;11.584;2023-05-16T06:34:11;10.20;99.90
38209;DHT22;24016;52.102;11.584;2023-05-16T06:36:37;10.20;99.90
38209;DHT22;24016;52.102;11.584;2023-05-16T06:39:02;10.30;99.90
38209;DHT22;24016;52.102;11.584;2023-05-16T06:41:29;10.30;99.90
38209;DHT22;24016;52.102;11.584;2023-05-16T06:43:55;10.40;99.90
38209;DHT22;24016;52.102;11.584;2023-05-16T06:46:21;10.50;99.90
38209;DHT22;24016;52.102;11.584;2023-05-16T06:48:46;10.50;99.90
38209;DHT22;24016;52.102;11.584;2023-05-16T06:51:12;10.60;99.90
38209;DHT22;24016;52.102;11.584;2023-05-16T06:53:37;10.60;99.90
38209;DHT22;24016;52.102;11.584;2023-05-16T06:56:03;10.70;99.90
38209;DHT22;24016;52.102;11.584;2023-05-16T06:58:29;10.70;99.90
38209;DHT22;24016;52.102;11.584;2023-05-16T07:00:54;10.90;99.90
38209;DHT22;24016;52.102;11.584;2023-05-16T07:03:20;11.10;99.90
38209;DHT22;24016;52.102;11.584;2023-05-16T07:05:45;11.10;99.90
38209;DHT22;24016;52.102;11.584;2023-05-16T07:08:11;11.20;99.90
38209;DHT22;24016;52.102;11.584;2023-05-16T07:10:38;11.30;99.90
38209;DHT22;24016;52.102;11.584;2023-05-16T07:13:04;11.20;99.90
38209;DHT22;24016;52.102;11.584;2023-05-16T07:15:30;11.10;99.90
38209;DHT22;24016;52.102;11.584;2023-05-16T07:17:56;11.10;99.90
38209;DHT22;24016;52.102;11.584;2023-05-16T07:20:22;11.10;99.90
38209;DHT22;24016;52.102;11.584;2023-05-16T07:22:47;11.20;99.90
38209;DHT22;24016;52.102;11.584;2023-05-16T07:25:13;11.50;99.90
38209;DHT22;24016;52.102;11.584;2023-05-16T07:27:40;11.80;99.90
38209;DHT22;24016;52.102;11.584;2023-05-16T07:30:12;12.10;99.90
38209;DHT22;24016;52.102;11.584;2023-05-16T07:32:38;12.10;99.90
38209;DHT22;24016;52.102;11.584;2023-05-16T07:35:04;12.00;99.90
38209;DHT22;24016;52.102;11.584;2023-05-16T07:37:30;11.80;99.90
38209;DHT22;24016;52.102;11.584;2023-05-16T07:39:55;11.90;99.90
38209;DHT22;24016;52.102;11.584;2023-05-16T07:42:21;11.90;99.90
38209;DHT22;24016;52.102;11.584;2023-05-16T07:44:46;12.00;99.90
38209;DHT22;24016;52.102;11.584;2023-05-16T07:47:12;12.20;99.90
38209;DHT22;24016;52.102;11.584;2023-05-16T07:49:38;12.20;99.90
38209;DHT22;24016;52.102;11.584;2023-05-16T07:52:03;12.10;99.90
38209;DHT22;24016;52.102;11.584;2023-05-16T07:54:31;12.00;99.90
38209;DHT22;24016;52.102;11.584;2023-05-16T07:56:57;11.90;99.90
38209;DHT22;24016;52.102;11.584;2023-05-16T07:59:23;11.70;99.90
38209;DHT22;24016;52.102;11.584;2023-05-16T08:01:48;11.60;99.90
38209;DHT22;24016;52.102;11.584;2023-05-16T08:04:14;11.40;99.90
38209;DHT22;24016;52.102;11.584;2023-05-16T08:06:39;11.40;99.90
38209;DHT22;24016;52.102;11.584;2023-05-16T08:09:05;11.50;99.90
38209;DHT22;24016;52.102;11.584;2023-05-16T08:11:30;11.50;99.90
38209;DHT22;24016;52.102;11.584;2023-05-16T08:13:56;11.60;99.90
38209;DHT22;24016;52.102;11.584;2023-05-16T08:16:22;11.70;99.90
38209;DHT22;24016;52.102;11.584;2023-05-16T08:18:47;11.90;99.90
38209;DHT22;24016;52.102;11.584;2023-05-16T08:21:13;12.10;99.90
38209;DHT22;24016;52.102;11.584;2023-05-16T08:23:39;12.20;99.90
38209;DHT22;24016;52.102;11.584;2023-05-16T08:26:05;12.20;99.90
38209;DHT22;24016;52.102;11.584;2023-05-16T08:28:34;12.30;99.90
38209;DHT22;24016;52.102;11.584;2023-05-16T08:30:59;12.40;99.90
38209;DHT22;24016;52.102;11.584;2023-05-16T08:33:25;12.50;99.90
38209;DHT22;24016;52.102;11.584;2023-05-16T08:35:50;12.60;99.90
38209;DHT22;24016;52.102;11.584;2023-05-16T08:38:17;12.70;99.90
38209;DHT22;24016;52.102;11.584;2023-05-16T08:40:43;12.80;99.90
38209;DHT22;24016;52.102;11.584;2023-05-16T08:43:09;13.20;99.90
38209;DHT22;24016;52.102;11.584;2023-05-16T08:45:35;13.70;99.90
38209;DHT22;24016;52.102;11.584;2023-05-16T08:48:01;13.70;99.90
38209;DHT22;24016;52.102;11.584;2023-05-16T08:50:30;13.20;99.90
38209;DHT22;24016;52.102;11.584;2023-05-16T08:52:56;13.00;99.90
38209;DHT22;24016;52.102;11.584;2023-05-16T08:55:24;12.80;99.90
38209;DHT22;24016;52.102;11.584;2023-05-16T08:57:51;12.60;99.90
38209;DHT22;24016;52.102;11.584;2023-05-16T09:00:18;12.60;99.90
38209;DHT22;24016;52.102;11.584;2023-05-16T09:02:45;12.50;99.90
38209;DHT22;24016;52.102;11.584;2023-05-16T09:05:12;12.50;99.90
38209;DHT22;24016;52.102;11.584;2023-05-16T09:07:39;12.70;99.90
38209;DHT22;24016;52.102;11.584;2023-05-16T09:10:06;13.70;99.90
38209;DHT22;24016;52.102;11.584;2023-05-16T09:12:33;14.90;99.90
38209;DHT22;24016;52.102;11.584;2023-05-16T09:15:03;15.80;99.90
38209;DHT22;24016;52.102;11.584;2023-05-16T09:17:42;16.00;99.90
38209;DHT22;24016;52.102;11.584;2023-05-16T09:20:12;15.70;99.90
38209;DHT22;24016;52.102;11.584;2023-05-16T09:22:39;15.60;99.90
38209;DHT22;24016;52.102;11.584;2023-05-16T09:25:05;15.40;99.90
38209;DHT22;24016;52.102;11.584;2023-05-16T09:27:31;15.50;99.90
38209;DHT22;24016;52.102;11.584;2023-05-16T09:29:57;15.40;99.90
38209;DHT22;24016;52.102;11.584;2023-05-16T09:32:23;15.20;99.90
38209;DHT22;24016;52.102;11.584;2023-05-16T09:34:49;14.60;99.90
38209;DHT22;24016;52.102;11.584;2023-05-16T09:37:17;14.30;99.90
38209;DHT22;24016;52.102;11.584;2023-05-16T09:39:51;14.20;99.90
38209;DHT22;24016;52.102;11.584;2023-05-16T09:42:18;14.90;99.90
38209;DHT22;24016;52.102;11.584;2023-05-16T09:44:48;15.60;99.90
38209;DHT22;24016;52.102;11.584;2023-05-16T09:47:21;16.20;99.90
38209;DHT22;24016;52.102;11.584;2023-05-16T09:49:51;15.80;99.90
38209;DHT22;24016;52.102;11.584;2023-05-16T09:52:17;15.70;99.90
38209;DHT22;24016;52.102;11.584;2023-05-16T09:54:45;15.50;99.90
38209;DHT22;24016;52.102;11.584;2023-05-16T09:57:19;15.50;99.90
38209;DHT22;24016;52.102;11.584;2023-05-16T09:59:46;15.60;99.90
38209;DHT22;24016;52.102;11.584;2023-05-16T10:02:12;16.00;99.90
38209;DHT22;24016;52.102;11.584;2023-05-16T10:04:38;16.60;99.90
38209;DHT22;24016;52.102;11.584;2023-05-16T10:07:04;17.10;99.90
38209;DHT22;24016;52.102;11.584;2023-05-16T10:09:33;16.90;99.90
38209;DHT22;24016;52.102;11.584;2023-05-16T10:12:04;16.40;99.90
38209;DHT22;24016;52.102;11.584;2023-05-16T10:14:36;16.00;99.90
38209;DHT22;24016;52.102;11.584;2023-05-16T10:17:03;16.30;99.90
38209;DHT22;24016;52.102;11.584;2023-05-16T10:19:37;16.00;99.90
38209;DHT22;24016;52.102;11.584;2023-05-16T10:22:05;16.00;99.90
38209;DHT22;24016;52.102;11.584;2023-05-16T10:24:47;16.40;99.90
38209;DHT22;24016;52.102;11.584;2023-05-16T10:27:16;16.50;99.90
38209;DHT22;24016;52.102;11.584;2023-05-16T10:29:42;17.20;98.80
38209;DHT22;24016;52.102;11.584;2023-05-16T10:32:09;17.50;98.30
38209;DHT22;24016;52.102;11.584;2023-05-16T10:34:35;17.40;98.30
38209;DHT22;24016;52.102;11.584;2023-05-16T10:37:02;16.90;99.50
38209;DHT22;24016;52.102;11.584;2023-05-16T10:39:29;16.80;99.90
38209;DHT22;24016;52.102;11.584;2023-05-16T10:41:55;16.40;99.90
38209;DHT22;24016;52.102;11.584;2023-05-16T10:44:20;16.50;99.90
38209;DHT22;24016;52.102;11.584;2023-05-16T10:46:46;16.50;99.90
38209;DHT22;24016;52.102;11.584;2023-05-16T10:49:23;16.70;99.90
38209;DHT22;24016;52.102;11.584;2023-05-16T10:52:08;17.60;98.90
38209;DHT22;24016;52.102;11.584;2023-05-16T10:54:35;17.70;98.60
38209;DHT22;24016;52.102;11.584;2023-05-16T10:57:10;17.20;98.60
38209;DHT22;24016;52.102;11.584;2023-05-16T10:59:44;17.30;99.00
38209;DHT22;24016;52.102;11.584;2023-05-16T11:02:30;17.40;98.50
38209;DHT22;24016;52.102;11.584;2023-05-16T11:05:00;17.70;97.60
38209;DHT22;24016;52.102;11.584;2023-05-16T11:07:34;17.10;97.40
38209;DHT22;24016;52.102;11.584;2023-05-16T11:10:24;16.50;98.60
38209;DHT22;24016;52.102;11.584;2023-05-16T11:12:50;16.40;97.80
38209;DHT22;24016;52.102;11.584;2023-05-16T11:15:18;16.00;97.70
38209;DHT22;24016;52.102;11.584;2023-05-16T11:17:44;15.90;98.20
38209;DHT22;24016;52.102;11.584;2023-05-16T11:20:29;15.80;98.90
38209;DHT22;24016;52.102;11.584;2023-05-16T11:25:42;16.50;98.10
38209;DHT22;24016;52.102;11.584;2023-05-16T11:28:11;16.50;98.00
38209;DHT22;24016;52.102;11.584;2023-05-16T11:30:45;16.40;97.00
38209;DHT22;24016;52.102;11.584;2023-05-16T11:33:11;16.50;98.30
38209;DHT22;24016;52.102;11.584;2023-05-16T11:35:37;16.70;96.60
38209;DHT22;24016;52.102;11.584;2023-05-16T11:38:03;17.30;96.50
38209;DHT22;24016;52.102;11.584;2023-05-16T11:40:29;18.10;95.60
38209;DHT22;24016;52.102;11.584;2023-05-16T11:42:54;18.70;96.60
38209;DHT22;24016;52.102;11.584;2023-05-16T11:45:24;18.80;95.30
38209;DHT22;24016;52.102;11.584;2023-05-16T11:47:49;18.90;95.30
38209;DHT22;24016;52.102;11.584;2023-05-16T11:50:17;19.20;94.10
38209;DHT22;24016;52.102;11.584;2023-05-16T11:52:46;19.30;93.50
38209;DHT22;24016;52.102;11.584;2023-05-16T11:55:13;19.20;93.30
38209;DHT22;24016;52.102;11.584;2023-05-16T11:57:40;19.40;93.10
38209;DHT22;24016;52.102;11.584;2023-05-16T12:00:16;19.20;91.70
38209;DHT22;24016;52.102;11.584;2023-05-16T12:02:46;18.80;91.80
38209;DHT22;24016;52.102;11.584;2023-05-16T12:05:13;18.90;92.90
38209;DHT22;24016;52.102;11.584;2023-05-16T12:07:39;19.60;91.70
38209;DHT22;24016;52.102;11.584;2023-05-16T12:10:10;20.20;92.10
38209;DHT22;24016;52.102;11.584;2023-05-16T12:12:38;20.70;90.10
38209;DHT22;24016;52.102;11.584;2023-05-16T12:15:05;20.80;87.20
38209;DHT22;24016;52.102;11.584;2023-05-16T12:17:38;20.60;88.70
38209;DHT22;24016;52.102;11.584;2023-05-16T12:20:05;19.90;87.00
38209;DHT22;24016;52.102;11.584;2023-05-16T12:22:32;19.20;88.10
38209;DHT22;24016;52.102;11.584;2023-05-16T12:27:55;18.50;90.10
38209;DHT22;24016;52.102;11.584;2023-05-16T12:30:25;18.60;91.90
38209;DHT22;24016;52.102;11.584;2023-05-16T12:32:55;19.40;91.00
38209;DHT22;24016;52.102;11.584;2023-05-16T12:35:25;19.70;86.30
38209;DHT22;24016;52.102;11.584;2023-05-16T12:37:54;19.80;86.20
38209;DHT22;24016;52.102;11.584;2023-05-16T12:40:20;19.60;89.00
38209;DHT22;24016;52.102;11.584;2023-05-16T12:42:50;19.40;87.20
38209;DHT22;24016;52.102;11.584;2023-05-16T12:45:18;18.80;83.20
38209;DHT22;24016;52.102;11.584;2023-05-16T12:47:44;18.60;84.40
38209;DHT22;24016;52.102;11.584;2023-05-16T12:50:14;18.40;84.30
38209;DHT22;24016;52.102;11.584;2023-05-16T12:52:45;18.80;88.10
38209;DHT22;24016;52.102;11.584;2023-05-16T12:55:11;19.60;86.20
38209;DHT22;24016;52.102;11.584;2023-05-16T12:57:36;20.50;83.50
38209;DHT22;24016;52.102;11.584;2023-05-16T13:00:02;21.30;84.20
38209;DHT22;24016;52.102;11.584;2023-05-16T13:02:28;21.50;80.40
38209;DHT22;24016;52.102;11.584;2023-05-16T13:04:53;21.70;79.80
38209;DHT22;24016;52.102;11.584;2023-05-16T13:07:19;20.90;82.00
38209;DHT22;24016;52.102;11.584;2023-05-16T13:09:44;20.70;82.00
38209;DHT22;24016;52.102;11.584;2023-05-16T13:12:10;21.10;80.80
38209;DHT22;24016;52.102;11.584;2023-05-16T13:14:36;21.70;80.00
38209;DHT22;24016;52.102;11.584;2023-05-16T13:17:01;22.10;81.20
38209;DHT22;24016;52.102;11.584;2023-05-16T13:19:28;22.60;80.00
38209;DHT22;24016;52.102;11.584;2023-05-16T13:21:55;22.00;81.00
38209;DHT22;24016;52.102;11.584;2023-05-16T13:24:21;20.40;80.50
38209;DHT22;24016;52.102;11.584;2023-05-16T13:26:46;19.90;82.10
38209;DHT22;24016;52.102;11.584;2023-05-16T13:29:12;19.80;83.60
38209;DHT22;24016;52.102;11.584;2023-05-16T13:31:38;19.20;86.00
38209;DHT22;24016;52.102;11.584;2023-05-16T13:34:04;18.60;85.20
38209;DHT22;24016;52.102;11.584;2023-05-16T13:36:30;19.20;85.00
38209;DHT22;24016;52.102;11.584;2023-05-16T13:38:55;20.20;83.30
38209;DHT22;24016;52.102;11.584;2023-05-16T13:41:21;21.10;79.20
38209;DHT22;24016;52.102;11.584;2023-05-16T13:43:46;21.40;77.20
38209;DHT22;24016;52.102;11.584;2023-05-16T13:46:12;21.20;77.20
38209;DHT22;24016;52.102;11.584;2023-05-16T13:48:39;20.50;77.70
38209;DHT22;24016;52.102;11.584;2023-05-16T13:51:06;20.20;79.70
38209;DHT22;24016;52.102;11.584;2023-05-16T13:53:32;20.10;80.40
38209;DHT22;24016;52.102;11.584;2023-05-16T13:55:57;20.00;82.00
38209;DHT22;24016;52.102;11.584;2023-05-16T13:58:23;19.50;86.00
38209;DHT22;24016;52.102;11.584;2023-05-16T14:00:49;18.90;86.60
38209;DHT22;24016;52.102;11.584;2023-05-16T14:03:14;18.40;81.80
38209;DHT22;24016;52.102;11.584;2023-05-16T14:05:40;18.50;80.60
38209;DHT22;24016;52.102;11.584;2023-05-16T14:08:06;18.60;82.10
38209;DHT22;24016;52.102;11.584;2023-05-16T14:10:32;18.50;82.40
38209;DHT22;24016;52.102;11.584;2023-05-16T14:12:57;18.20;81.30
38209;DHT22;24016;52.102;11.584;2023-05-16T14:15:23;17.50;83.30
38209;DHT22;24016;52.102;11.584;2023-05-16T14:17:48;17.20;86.00
38209;DHT22;24016;52.102;11.584;2023-05-16T14:20:14;17.60;85.10
38209;DHT22;24016;52.102;11.584;2023-05-16T14:22:40;17.90;85.80
38209;DHT22;24016;52.102;11.584;2023-05-16T14:25:06;17.70;85.10
38209;DHT22;24016;52.102;11.584;2023-05-16T14:27:31;18.20;83.80
38209;DHT22;24016;52.102;11.584;2023-05-16T14:29:57;18.40;83.00
38209;DHT22;24016;52.102;11.584;2023-05-16T14:32:23;18.60;83.90
38209;DHT22;24016;52.102;11.584;2023-05-16T14:34:48;18.70;87.20
38209;DHT22;24016;52.102;11.584;2023-05-16T14:37:14;18.60;85.50
38209;DHT22;24016;52.102;11.584;2023-05-16T14:39:41;18.20;84.80
38209;DHT22;24016;52.102;11.584;2023-05-16T14:42:07;17.90;86.30
38209;DHT22;24016;52.102;11.584;2023-05-16T14:44:32;17.60;85.60
38209;DHT22;24016;52.102;11.584;2023-05-16T14:46:58;17.50;83.30
38209;DHT22;24016;52.102;11.584;2023-05-16T14:49:23;17.70;82.60
38209;DHT22;24016;52.102;11.584;2023-05-16T14:51:49;17.90;81.30
38209;DHT22;24016;52.102;11.584;2023-05-16T14:54:15;17.90;81.40
38209;DHT22;24016;52.102;11.584;2023-05-16T14:56:41;17.80;80.00
38209;DHT22;24016;52.102;11.584;2023-05-16T14:59:06;17.50;81.50
38209;DHT22;24016;52.102;11.584;2023-05-16T15:01:32;17.40;81.90
38209;DHT22;24016;52.102;11.584;2023-05-16T15:03:57;17.30;80.80
38209;DHT22;24016;52.102;11.584;2023-05-16T15:06:23;17.10;80.90
38209;DHT22;24016;52.102;11.584;2023-05-16T15:08:49;17.10;82.00
38209;DHT22;24016;52.102;11.584;2023-05-16T15:11:15;17.10;81.60
38209;DHT22;24016;52.102;11.584;2023-05-16T15:13:40;16.90;82.70
38209;DHT22;24016;52.102;11.584;2023-05-16T15:16:06;16.60;85.50
38209;DHT22;24016;52.102;11.584;2023-05-16T15:18:32;16.70;87.40
38209;DHT22;24016;52.102;11.584;2023-05-16T15:20:57;16.90;88.60
38209;DHT22;24016;52.102;11.584;2023-05-16T15:23:23;16.80;87.30
38209;DHT22;24016;52.102;11.584;2023-05-16T15:25:48;16.80;87.10
38209;DHT22;24016;52.102;11.584;2023-05-16T15:28:14;16.60;88.60
38209;DHT22;24016;52.102;11.584;2023-05-16T15:30:39;16.20;88.80
38209;DHT22;24016;52.102;11.584;2023-05-16T15:33:15;16.00;88.40